Time;durP1;ratioP1;P1;durP2;ratioP2;P2;SDS_P1;SDS_P2;PMS_P1;PMS_P2;Temp;Humidity;BMP_temperature;BMP_pressure;BME280_temperature;BME280_humidity;BME280_pressure;Samples;Min_cycle;Max_cycle;Signal;HPM_P1;HPM_P2
2022/09/07 00:01:26;;;;;;;11.00;8.23;;;20.20;99.90;;;;;;5027970;28;20128;-73
2022/09/07 00:03:56;;;;;;;11.00;8.07;;;20.20;99.90;;;;;;5015301;28;21606;-73
2022/09/07 00:06:21;;;;;;;12.82;7.75;;;20.20;99.90;;;;;;5028991;28;20084;-74
2022/09/07 00:08:47;;;;;;;12.88;7.63;;;20.20;99.90;;;;;;5025992;28;20037;-73
2022/09/07 00:11:16;;;;;;;11.52;8.13;;;20.10;99.90;;;;;;5024673;28;22250;-73
2022/09/07 00:13:43;;;;;;;11.55;7.35;;;20.10;99.90;;;;;;5020928;28;20065;-73
2022/09/07 00:16:12;;;;;;;11.10;8.15;;;20.10;99.90;;;;;;5019094;28;20041;-74
2022/09/07 00:18:38;;;;;;;13.75;8.82;;;20.00;99.90;;;;;;5025963;28;20318;-73
2022/09/07 00:21:06;;;;;;;13.77;8.32;;;20.00;99.90;;;;;;5019675;28;20120;-73
2022/09/07 00:23:34;;;;;;;12.48;7.78;;;20.00;99.90;;;;;;5019265;28;20130;-73
2022/09/07 00:26:09;;;;;;;11.63;8.55;;;20.00;99.90;;;;;;5019778;28;20053;-74
2022/09/07 00:28:36;;;;;;;12.20;8.35;;;19.90;99.90;;;;;;5019766;28;20053;-73
2022/09/07 00:31:02;;;;;;;11.25;8.70;;;19.90;99.90;;;;;;5014763;28;20056;-73
2022/09/07 00:33:29;;;;;;;10.50;7.82;;;19.90;99.90;;;;;;5020139;28;20049;-73
2022/09/07 00:35:56;;;;;;;10.90;7.88;;;19.80;99.90;;;;;;5021292;28;20037;-74
2022/09/07 00:38:22;;;;;;;12.38;7.90;;;19.80;99.90;;;;;;5021639;28;20037;-73
2022/09/07 00:40:47;;;;;;;10.30;7.93;;;19.80;99.90;;;;;;5022798;28;20403;-73
2022/09/07 00:43:28;;;;;;;17.20;8.23;;;19.80;99.90;;;;;;5017420;28;20065;-73
2022/09/07 00:45:53;;;;;;;13.10;8.40;;;19.80;99.90;;;;;;5015065;28;20072;-73
2022/09/07 00:48:21;;;;;;;15.38;8.85;;;19.70;99.90;;;;;;5015607;28;20073;-73
2022/09/07 00:50:51;;;;;;;13.40;8.15;;;19.70;99.90;;;;;;5023835;28;20056;-73
2022/09/07 00:53:25;;;;;;;10.43;7.97;;;19.60;99.90;;;;;;5015378;28;20045;-73
2022/09/07 00:55:52;;;;;;;12.30;8.55;;;19.70;99.90;;;;;;5021925;28;20063;-73
2022/09/07 00:58:21;;;;;;;11.70;7.97;;;19.60;99.90;;;;;;5015396;28;20128;-74
2022/09/07 01:00:48;;;;;;;12.32;8.30;;;19.60;99.90;;;;;;5019496;28;20052;-74
2022/09/07 01:03:23;;;;;;;11.52;7.60;;;19.60;99.90;;;;;;5019485;28;20050;-74
2022/09/07 01:05:59;;;;;;;11.18;8.27;;;19.60;99.90;;;;;;5024135;28;20107;-74
2022/09/07 01:08:25;;;;;;;11.93;8.00;;;19.60;99.90;;;;;;5017971;28;20051;-74
2022/09/07 01:10:51;;;;;;;12.88;8.25;;;19.60;99.90;;;;;;5022826;28;20128;-74
2022/09/07 01:13:16;;;;;;;11.95;7.75;;;19.60;99.90;;;;;;5020204;28;20317;-74
2022/09/07 01:16:28;;;;;;;12.38;8.07;;;19.60;99.90;;;;;;5018942;28;20045;-74
2022/09/07 01:19:18;;;;;;;12.38;8.00;;;19.60;99.90;;;;;;4954123;28;20173;-73
2022/09/07 01:21:49;;;;;;;11.02;6.85;;;19.60;99.90;;;;;;4952951;28;20053;-73
2022/09/07 01:24:34;;;;;;;12.38;7.75;;;19.60;99.90;;;;;;5002727;28;20057;-73
2022/09/07 01:27:20;;;;;;;10.93;7.15;;;19.50;99.90;;;;;;5019594;28;20084;-73
2022/09/07 01:30:17;;;;;;;10.98;6.95;;;19.50;99.90;;;;;;5014771;28;20069;-74
2022/09/07 01:33:05;;;;;;;11.00;6.37;;;19.50;99.90;;;;;;5015490;28;20442;-73
2022/09/07 01:35:54;;;;;;;8.65;6.43;;;19.50;99.90;;;;;;5048814;22;20122;-71
2022/09/07 01:38:26;;;;;;;10.15;5.75;;;19.40;99.90;;;;;;5039474;28;20038;-71
2022/09/07 01:41:08;;;;;;;9.35;5.95;;;19.30;99.90;;;;;;5038064;28;20384;-73
2022/09/07 01:43:44;;;;;;;9.00;5.05;;;19.30;99.90;;;;;;5021431;28;20037;-73
2022/09/07 01:46:24;;;;;;;9.13;5.43;;;19.30;99.90;;;;;;5019754;28;20124;-73
2022/09/07 01:48:53;;;;;;;10.48;5.13;;;19.20;99.90;;;;;;5022762;28;20077;-73
2022/09/07 01:51:21;;;;;;;8.73;4.55;;;19.20;99.90;;;;;;5020349;28;20095;-73
2022/09/07 01:54:12;;;;;;;8.90;4.25;;;19.20;99.90;;;;;;5020221;28;20041;-73
2022/09/07 01:56:43;;;;;;;6.32;4.22;;;19.10;99.90;;;;;;5015710;28;20522;-73
2022/09/07 01:59:29;;;;;;;9.82;4.10;;;19.10;99.90;;;;;;5018690;28;20064;-74
2022/09/07 02:02:11;;;;;;;7.28;4.75;;;19.10;99.90;;;;;;5021257;28;20065;-73
2022/09/07 02:04:46;;;;;;;7.70;4.10;;;19.10;99.90;;;;;;5012552;28;20192;-74
2022/09/07 02:07:20;;;;;;;8.88;5.00;;;19.00;99.90;;;;;;5024108;28;20057;-74
2022/09/07 02:10:14;;;;;;;7.45;4.90;;;19.00;99.90;;;;;;5028330;28;20362;-74
2022/09/07 02:13:02;;;;;;;6.95;4.32;;;19.00;99.90;;;;;;4988724;28;20057;-74
2022/09/07 02:15:41;;;;;;;8.13;4.55;;;18.90;99.90;;;;;;5016730;28;20495;-74
2022/09/07 02:18:09;;;;;;;7.35;4.93;;;19.00;99.90;;;;;;5040587;28;20133;-74
2022/09/07 02:20:40;;;;;;;6.43;4.15;;;18.90;99.90;;;;;;5023239;28;20372;-74
2022/09/07 02:23:14;;;;;;;10.85;4.78;;;18.90;99.90;;;;;;5022957;28;20127;-74
2022/09/07 02:25:45;;;;;;;7.35;4.43;;;18.90;99.90;;;;;;5037731;28;20041;-74
2022/09/07 02:28:15;;;;;;;6.10;3.80;;;18.90;99.90;;;;;;5024558;28;20051;-74
2022/09/07 02:30:41;;;;;;;8.90;4.78;;;18.90;99.90;;;;;;5005379;28;20137;-74
2022/09/07 02:33:06;;;;;;;6.22;4.07;;;18.90;99.90;;;;;;5025737;28;20037;-73
2022/09/07 02:35:33;;;;;;;5.82;4.18;;;18.90;99.90;;;;;;5024238;28;20038;-74
2022/09/07 02:38:02;;;;;;;6.68;4.10;;;18.90;99.90;;;;;;5014115;28;20041;-72
2022/09/07 02:40:28;;;;;;;5.85;3.10;;;18.90;99.90;;;;;;5020244;28;20379;-72
2022/09/07 02:42:54;;;;;;;4.38;2.30;;;18.80;99.90;;;;;;5015361;28;20128;-72
2022/09/07 02:45:20;;;;;;;;;;;18.80;99.90;;;;;;5006049;28;20159;-72
2022/09/07 02:48:10;;;;;;;2.67;1.73;;;18.70;99.90;;;;;;5028147;28;19951;-72
2022/09/07 02:51:02;;;;;;;4.10;2.03;;;18.70;99.90;;;;;;5017673;28;20068;-72
2022/09/07 02:53:27;;;;;;;2.85;1.83;;;18.60;99.90;;;;;;5023579;28;20156;-72
2022/09/07 02:56:10;;;;;;;3.58;1.70;;;18.60;99.90;;;;;;5023383;28;20069;-72
2022/09/07 02:58:50;;;;;;;5.28;2.22;;;18.60;99.90;;;;;;5025596;28;20048;-72
2022/09/07 03:01:34;;;;;;;3.63;1.90;;;18.50;99.90;;;;;;5014615;28;20510;-74
2022/09/07 03:04:06;;;;;;;3.17;1.80;;;18.50;99.90;;;;;;5026254;28;20095;-74
2022/09/07 03:06:48;;;;;;;2.85;1.70;;;18.50;99.90;;;;;;5034081;28;20503;-74
2022/09/07 03:09:19;;;;;;;3.00;1.92;;;18.40;99.90;;;;;;5028286;28;20113;-74
2022/09/07 03:11:46;;;;;;;2.83;1.70;;;18.40;99.90;;;;;;5023069;28;20081;-74
2022/09/07 03:14:17;;;;;;;3.20;1.70;;;18.50;99.90;;;;;;5024983;28;20172;-74
2022/09/07 03:16:43;;;;;;;2.80;1.90;;;18.40;99.90;;;;;;5022959;28;20169;-72
2022/09/07 03:19:09;;;;;;;4.22;1.80;;;18.40;99.90;;;;;;5019870;28;20033;-72
2022/09/07 03:21:34;;;;;;;3.85;1.60;;;18.40;99.90;;;;;;5022224;28;20093;-72
2022/09/07 03:24:01;;;;;;;2.83;1.60;;;18.40;99.90;;;;;;5024083;28;20319;-72
2022/09/07 03:26:27;;;;;;;3.35;2.10;;;18.40;99.90;;;;;;5021433;28;20037;-72
2022/09/07 03:28:52;;;;;;;3.35;1.88;;;18.40;99.90;;;;;;5023798;28;20050;-73
2022/09/07 03:31:19;;;;;;;5.85;1.83;;;18.40;99.90;;;;;;5019967;28;20335;-73
2022/09/07 03:33:44;;;;;;;4.50;1.85;;;18.30;99.90;;;;;;5021424;28;20451;-73
2022/09/07 03:36:10;;;;;;;2.88;1.60;;;18.40;99.90;;;;;;5024503;28;20037;-73
2022/09/07 03:38:35;;;;;;;2.65;1.60;;;18.30;99.90;;;;;;5023422;28;20050;-73
2022/09/07 03:41:04;;;;;;;2.78;1.40;;;18.30;99.90;;;;;;5024423;28;20045;-73
2022/09/07 03:43:30;;;;;;;5.65;1.73;;;18.30;99.90;;;;;;5027468;28;20151;-73
2022/09/07 03:45:57;;;;;;;;;;;18.40;99.90;;;;;;5010470;28;20041;-73
2022/09/07 03:48:22;;;;;;;2.83;1.57;;;18.30;99.90;;;;;;5026425;28;19917;-73
2022/09/07 03:50:56;;;;;;;2.03;1.20;;;18.30;99.90;;;;;;5019755;28;20511;-73
2022/09/07 03:53:22;;;;;;;2.10;1.30;;;18.30;99.90;;;;;;5019498;28;20048;-73
2022/09/07 03:55:59;;;;;;;1.95;1.17;;;18.30;99.90;;;;;;5032058;28;20471;-73
2022/09/07 03:58:27;;;;;;;4.22;1.58;;;18.20;99.90;;;;;;5020021;28;20044;-73
2022/09/07 04:00:52;;;;;;;3.13;1.20;;;18.20;99.90;;;;;;5016847;28;20111;-73
2022/09/07 04:03:18;;;;;;;1.55;0.88;;;18.20;99.90;;;;;;5021185;28;20432;-73
2022/09/07 04:05:43;;;;;;;1.55;0.95;;;18.20;99.90;;;;;;5019153;28;20518;-73
2022/09/07 04:08:09;;;;;;;3.13;1.40;;;18.20;99.90;;;;;;5022732;28;20144;-73
2022/09/07 04:10:40;;;;;;;4.25;1.38;;;18.20;99.90;;;;;;5012830;28;20491;-73
2022/09/07 04:13:06;;;;;;;1.77;0.98;;;18.10;99.90;;;;;;4987346;28;20041;-73
2022/09/07 04:15:33;;;;;;;2.58;1.35;;;18.10;99.90;;;;;;4987613;28;20045;-73
2022/09/07 04:17:59;;;;;;;;;;;18.10;99.90;;;;;;4990748;28;20038;-72
2022/09/07 04:20:24;;;;;;;3.17;1.27;;;18.10;99.90;;;;;;4983871;28;20466;-73
2022/09/07 04:22:51;;;;;;;2.17;1.10;;;18.00;99.90;;;;;;4984582;28;20052;-73
2022/09/07 04:25:17;;;;;;;1.75;1.08;;;18.00;99.90;;;;;;4988059;28;20045;-73
2022/09/07 04:27:42;;;;;;;4.57;1.40;;;18.00;99.90;;;;;;4995785;28;20072;-73
2022/09/07 04:30:09;;;;;;;3.38;1.55;;;18.00;99.90;;;;;;4989395;28;20064;-73
2022/09/07 04:32:34;;;;;;;5.20;2.15;;;18.00;99.90;;;;;;4987658;28;20068;-73
2022/09/07 04:35:00;;;;;;;5.53;2.08;;;18.00;99.90;;;;;;4981552;28;20353;-73
2022/09/07 04:37:25;;;;;;;5.43;1.73;;;17.90;99.90;;;;;;4985206;28;20819;-73
2022/09/07 04:39:51;;;;;;;2.72;1.90;;;18.00;99.90;;;;;;4982071;28;20064;-73
2022/09/07 04:42:17;;;;;;;3.30;2.03;;;17.90;99.90;;;;;;4986158;28;20504;-73
2022/09/07 04:44:48;;;;;;;4.82;2.03;;;17.90;99.90;;;;;;4982406;28;20044;-73
2022/09/07 04:47:14;;;;;;;3.70;1.98;;;17.90;99.90;;;;;;4986813;28;20084;-72
2022/09/07 04:49:40;;;;;;;7.55;2.33;;;17.90;99.90;;;;;;4983054;28;20224;-72
2022/09/07 04:52:06;;;;;;;3.33;2.08;;;17.90;99.90;;;;;;4986101;28;20053;-72
2022/09/07 04:54:31;;;;;;;3.85;1.70;;;17.90;99.90;;;;;;4982904;28;20037;-72
2022/09/07 04:56:57;;;;;;;3.20;1.90;;;17.90;99.90;;;;;;4984364;28;20689;-72
2022/09/07 04:59:23;;;;;;;3.50;1.83;;;17.90;99.90;;;;;;4988972;28;20042;-72
2022/09/07 05:01:48;;;;;;;6.25;1.95;;;17.80;99.90;;;;;;4982211;28;20476;-72
2022/09/07 05:04:14;;;;;;;5.65;2.58;;;17.80;99.90;;;;;;4988517;28;20037;-72
2022/09/07 05:06:39;;;;;;;4.55;1.90;;;17.80;99.90;;;;;;4979245;28;20053;-72
2022/09/07 05:09:05;;;;;;;3.47;1.88;;;17.80;99.90;;;;;;4985144;28;20546;-71
2022/09/07 05:11:31;;;;;;;4.38;2.17;;;17.70;99.90;;;;;;4987745;28;20872;-72
2022/09/07 05:14:00;;;;;;;4.25;2.15;;;17.70;99.90;;;;;;4983593;28;20049;-72
2022/09/07 05:16:27;;;;;;;5.50;2.10;;;17.70;99.90;;;;;;4982989;28;20038;-72
2022/09/07 05:18:55;;;;;;;3.53;2.25;;;17.80;99.90;;;;;;4987385;28;20037;-71
2022/09/07 05:21:24;;;;;;;4.20;2.22;;;17.80;99.90;;;;;;4981014;28;20092;-71
2022/09/07 05:23:51;;;;;;;4.80;2.95;;;17.80;99.90;;;;;;4983443;28;20522;-72
2022/09/07 05:26:18;;;;;;;5.78;3.45;;;17.80;99.90;;;;;;4983302;28;20057;-72
2022/09/07 05:28:44;;;;;;;4.20;2.50;;;17.80;99.90;;;;;;4991746;28;20412;-72
2022/09/07 05:31:21;;;;;;;4.72;2.92;;;17.80;99.90;;;;;;4980042;28;20583;-72
2022/09/07 05:33:48;;;;;;;;;;;17.80;99.90;;;;;;4983652;28;20045;-72
2022/09/07 05:36:14;;;;;;;3.63;2.20;;;17.80;99.90;;;;;;4981588;28;19925;-72
2022/09/07 05:38:40;;;;;;;;;;;17.90;99.90;;;;;;4971791;28;20056;-72
2022/09/07 05:41:14;;;;;;;4.93;2.92;;;17.90;99.90;;;;;;4983099;28;20478;-72
2022/09/07 05:43:40;;;;;;;5.07;2.75;;;17.90;99.90;;;;;;4984361;28;20046;-72
2022/09/07 05:46:07;;;;;;;4.97;2.90;;;17.90;99.90;;;;;;4991188;28;20640;-76
2022/09/07 05:48:33;;;;;;;7.05;3.45;;;17.90;99.90;;;;;;4992446;28;20219;-73
2022/09/07 05:50:59;;;;;;;4.82;3.30;;;17.90;99.90;;;;;;4993445;28;20494;-73
2022/09/07 05:53:24;;;;;;;6.65;3.67;;;17.90;99.90;;;;;;4986728;28;20114;-73
2022/09/07 05:55:50;;;;;;;6.45;3.58;;;17.90;99.90;;;;;;4967639;28;20151;-73
2022/09/07 05:58:17;;;;;;;5.68;3.33;;;17.90;99.90;;;;;;4992912;28;20400;-73
2022/09/07 06:00:46;;;;;;;8.70;3.85;;;17.90;99.90;;;;;;4983053;28;20841;-72
2022/09/07 06:03:12;;;;;;;5.75;3.83;;;17.90;99.90;;;;;;4977666;28;20045;-72
2022/09/07 06:05:37;;;;;;;5.28;4.28;;;17.90;99.90;;;;;;4986721;28;20042;-72
2022/09/07 06:08:03;;;;;;;7.85;4.28;;;18.00;99.90;;;;;;4987544;28;20053;-72
2022/09/07 06:10:33;;;;;;;6.50;4.30;;;17.90;99.90;;;;;;5007366;28;20131;-72
2022/09/07 06:12:59;;;;;;;7.57;4.53;;;17.90;99.90;;;;;;5035909;28;20049;-72
2022/09/07 06:15:25;;;;;;;8.18;5.07;;;17.90;99.90;;;;;;5020670;28;20084;-72
2022/09/07 06:17:50;;;;;;;8.52;5.50;;;17.90;99.90;;;;;;5015346;28;20075;-71
2022/09/07 06:20:16;;;;;;;7.15;4.65;;;17.90;99.90;;;;;;5018135;28;20045;-72
2022/09/07 06:22:42;;;;;;;10.27;5.65;;;18.00;99.90;;;;;;5021422;28;20173;-74
2022/09/07 06:25:08;;;;;;;10.23;6.32;;;17.90;99.90;;;;;;5018259;28;20033;-74
2022/09/07 06:27:33;;;;;;;6.80;5.22;;;18.00;99.90;;;;;;5015077;28;20041;-72
2022/09/07 06:29:59;;;;;;;7.93;5.57;;;18.00;99.90;;;;;;5030860;28;20034;-72
2022/09/07 06:32:25;;;;;;;9.82;5.75;;;18.00;99.90;;;;;;5021575;28;20081;-72
2022/09/07 06:34:50;;;;;;;9.02;6.00;;;18.00;99.90;;;;;;5025177;28;20404;-72
2022/09/07 06:37:24;;;;;;;7.80;5.68;;;18.00;99.90;;;;;;5008492;28;20513;-72
2022/09/07 06:39:50;;;;;;;9.50;6.43;;;18.00;99.90;;;;;;5020239;28;20415;-72
2022/09/07 06:42:15;;;;;;;9.43;6.30;;;18.10;99.90;;;;;;5005703;28;20045;-72
2022/09/07 06:44:41;;;;;;;10.95;7.15;;;18.10;99.90;;;;;;5024990;28;20089;-72
2022/09/07 06:47:06;;;;;;;9.40;6.90;;;18.10;99.90;;;;;;5024035;28;20061;-72
2022/09/07 06:49:32;;;;;;;9.93;6.32;;;18.10;99.90;;;;;;5018734;28;20193;-77
2022/09/07 06:51:58;;;;;;;9.63;7.30;;;18.10;99.90;;;;;;5005598;28;20049;-73
2022/09/07 06:54:24;;;;;;;13.95;8.00;;;18.10;99.90;;;;;;5010243;28;20073;-75
2022/09/07 06:56:49;;;;;;;11.50;8.40;;;18.10;99.90;;;;;;5018772;28;20569;-77
2022/09/07 06:59:15;;;;;;;13.95;8.43;;;18.10;99.90;;;;;;5037587;28;20073;-76
2022/09/07 07:01:41;;;;;;;12.30;8.27;;;18.10;99.90;;;;;;5023590;28;20045;-77
2022/09/07 07:04:06;;;;;;;12.25;8.65;;;18.10;99.90;;;;;;5022811;28;20138;-76
2022/09/07 07:06:37;;;;;;;14.02;8.60;;;18.20;99.90;;;;;;5019602;28;20511;-75
2022/09/07 07:09:07;;;;;;;12.45;8.80;;;18.20;99.90;;;;;;5026894;28;20175;-76
2022/09/07 07:11:35;;;;;;;13.13;8.88;;;18.20;99.90;;;;;;5009850;28;20200;-73
2022/09/07 07:14:02;;;;;;;13.75;8.00;;;18.20;99.90;;;;;;5022619;28;20047;-73
2022/09/07 07:16:27;;;;;;;;;;;18.20;99.90;;;;;;5023634;28;20048;-72
2022/09/07 07:18:56;;;;;;;13.30;8.80;;;18.30;99.90;;;;;;5025254;28;20100;-73
2022/09/07 07:21:22;;;;;;;12.40;8.50;;;18.30;99.90;;;;;;5021415;28;20484;-73
2022/09/07 07:23:52;;;;;;;12.77;8.32;;;18.40;99.90;;;;;;5024248;28;20163;-73
2022/09/07 07:26:25;;;;;;;13.15;8.65;;;18.40;99.90;;;;;;5019680;28;20320;-72
2022/09/07 07:28:53;;;;;;;14.15;9.15;;;18.50;99.90;;;;;;5020472;28;20045;-76
2022/09/07 07:31:21;;;;;;;15.43;9.65;;;18.50;99.90;;;;;;5019661;28;20108;-77
2022/09/07 07:33:47;;;;;;;15.32;9.68;;;18.50;99.90;;;;;;5024700;28;20049;-76
2022/09/07 07:36:14;;;;;;;;;;;18.60;99.90;;;;;;5035736;22;20049;-73
2022/09/07 07:38:42;;;;;;;16.77;10.35;;;18.50;99.90;;;;;;5021830;28;19952;-73
2022/09/07 07:41:07;;;;;;;14.98;9.57;;;18.60;99.90;;;;;;5023117;28;20055;-72
2022/09/07 07:43:33;;;;;;;18.35;9.80;;;18.60;99.90;;;;;;5024061;28;20112;-72
2022/09/07 07:45:59;;;;;;;;;;;18.70;99.90;;;;;;5024108;28;20033;-72
2022/09/07 07:48:26;;;;;;;13.70;9.20;;;18.70;99.90;;;;;;5019669;28;19924;-72
2022/09/07 07:51:06;;;;;;;15.82;10.07;;;18.70;99.90;;;;;;5022356;28;20073;-74
2022/09/07 07:53:37;;;;;;;14.35;9.00;;;18.70;99.90;;;;;;5023111;28;20049;-72
2022/09/07 07:56:04;;;;;;;16.42;10.50;;;18.80;99.90;;;;;;5018830;28;20041;-72
2022/09/07 07:58:32;;;;;;;16.00;8.70;;;18.80;99.90;;;;;;5003019;28;20049;-72
2022/09/07 08:01:20;;;;;;;13.20;9.25;;;18.90;99.90;;;;;;5023427;28;20047;-77
2022/09/07 08:03:46;;;;;;;13.23;8.80;;;18.80;99.90;;;;;;5023202;28;20037;-74
2022/09/07 08:06:17;;;;;;;12.38;9.00;;;19.00;99.90;;;;;;5016618;28;20053;-72
2022/09/07 08:08:44;;;;;;;12.73;9.13;;;19.00;99.90;;;;;;5018176;28;20333;-72
2022/09/07 08:11:19;;;;;;;12.43;8.30;;;19.00;99.90;;;;;;5005900;28;20395;-72
2022/09/07 08:13:48;;;;;;;13.77;8.40;;;19.10;99.90;;;;;;5030498;28;20489;-72
2022/09/07 08:16:15;;;;;;;13.60;7.93;;;19.10;99.90;;;;;;5023572;28;20595;-72
2022/09/07 08:18:41;;;;;;;16.70;8.00;;;19.20;99.90;;;;;;5024401;28;20080;-72
2022/09/07 08:21:09;;;;;;;12.75;7.75;;;19.30;99.90;;;;;;5023263;28;20144;-72
2022/09/07 08:23:36;;;;;;;12.38;7.20;;;19.30;99.90;;;;;;5023228;28;20436;-72
2022/09/07 08:26:02;;;;;;;;;;;19.30;99.90;;;;;;5002983;28;20177;-72
2022/09/07 08:28:29;;;;;;;11.38;6.88;;;19.30;99.90;;;;;;5024246;28;19924;-72
2022/09/07 08:30:56;;;;;;;11.95;6.88;;;19.30;99.90;;;;;;5024494;28;20044;-72
2022/09/07 08:33:22;;;;;;;13.55;7.97;;;19.30;99.90;;;;;;5018638;28;20045;-72
2022/09/07 08:35:59;;;;;;;11.82;8.05;;;19.30;99.90;;;;;;5023547;28;20852;-72
2022/09/07 08:38:27;;;;;;;12.00;7.43;;;19.30;99.90;;;;;;5015810;28;20041;-72
2022/09/07 08:40:53;;;;;;;9.65;6.38;;;19.30;99.90;;;;;;5003995;28;20075;-72
2022/09/07 08:43:18;;;;;;;;;;;19.30;99.90;;;;;;5016749;28;20417;-72
2022/09/07 08:45:49;;;;;;;11.77;7.50;;;19.30;99.90;;;;;;5024249;28;19917;-71
2022/09/07 08:48:19;;;;;;;9.88;6.30;;;19.30;99.90;;;;;;5022843;28;20462;-71
2022/09/07 08:50:55;;;;;;;9.73;6.85;;;19.30;99.90;;;;;;5019920;28;20042;-71
2022/09/07 08:53:23;;;;;;;8.27;5.97;;;19.30;99.90;;;;;;5022155;28;20040;-71
2022/09/07 08:55:57;;;;;;;8.55;6.18;;;19.30;99.90;;;;;;5018005;28;20044;-71
2022/09/07 08:58:41;;;;;;;9.63;6.00;;;19.30;99.90;;;;;;5018943;28;20630;-71
2022/09/07 09:01:29;;;;;;;12.38;6.07;;;19.40;99.90;;;;;;5021330;28;20048;-70
2022/09/07 09:03:55;;;;;;;10.73;6.43;;;19.50;99.90;;;;;;5021850;28;20060;-70
2022/09/07 09:06:30;;;;;;;8.48;5.82;;;19.60;99.90;;;;;;5019589;28;20046;-71
2022/09/07 09:09:05;;;;;;;9.43;5.82;;;19.70;99.90;;;;;;5022829;28;20048;-70
2022/09/07 09:11:45;;;;;;;8.63;6.05;;;19.70;99.90;;;;;;5017366;28;20124;-70
2022/09/07 09:14:35;;;;;;;8.00;5.45;;;19.70;99.90;;;;;;5019502;28;20064;-71
2022/09/07 09:17:21;;;;;;;7.18;5.15;;;19.80;99.90;;;;;;5021605;28;20132;-71
2022/09/07 09:20:30;;;;;;;7.37;5.17;;;19.80;99.90;;;;;;5022881;28;20172;-71
2022/09/07 09:23:04;;;;;;;8.18;4.80;;;19.90;99.90;;;;;;4927518;28;20074;-71
2022/09/07 09:25:38;;;;;;;6.63;4.75;;;19.90;99.90;;;;;;5005353;28;20399;-70
2022/09/07 09:28:04;;;;;;;9.05;5.53;;;19.90;99.90;;;;;;5023310;28;20033;-71
2022/09/07 09:30:30;;;;;;;5.47;4.17;;;20.00;99.90;;;;;;5015575;28;20041;-71
2022/09/07 09:33:16;;;;;;;;;;;20.10;99.90;;;;;;5020745;28;20132;-71
2022/09/07 09:35:43;;;;;;;6.15;4.30;;;20.20;99.90;;;;;;5016656;28;20105;-70
2022/09/07 09:38:31;;;;;;;4.75;3.33;;;20.30;99.90;;;;;;5017427;28;20050;-70
2022/09/07 09:41:09;;;;;;;3.25;2.42;;;20.40;99.90;;;;;;5022123;28;20095;-70
2022/09/07 09:43:37;;;;;;;3.83;2.30;;;20.60;99.90;;;;;;5017124;28;20095;-71
2022/09/07 09:46:19;;;;;;;4.35;2.08;;;20.60;99.90;;;;;;5017856;28;20049;-72
2022/09/07 09:49:17;;;;;;;3.88;2.30;;;20.70;99.90;;;;;;5023848;28;20049;-71
2022/09/07 09:51:52;;;;;;;7.05;2.30;;;20.80;99.90;;;;;;5016193;28;20136;-71
2022/09/07 09:54:26;;;;;;;3.50;2.25;;;20.80;99.90;;;;;;5018070;28;20054;-70
2022/09/07 09:56:52;;;;;;;2.95;1.80;;;20.80;99.90;;;;;;5023043;28;20080;-71
2022/09/07 09:59:20;;;;;;;2.95;1.75;;;20.80;99.90;;;;;;5022825;28;20115;-71
2022/09/07 10:01:48;;;;;;;2.97;1.73;;;20.80;99.90;;;;;;5021840;28;20111;-71
2022/09/07 10:04:26;;;;;;;2.75;1.80;;;21.00;99.90;;;;;;5014049;28;20045;-70
2022/09/07 10:07:26;;;;;;;3.90;2.22;;;21.10;99.90;;;;;;5019530;28;20574;-71
2022/09/07 10:09:54;;;;;;;6.38;1.48;;;21.20;99.90;;;;;;5005994;28;20403;-71
2022/09/07 10:12:28;;;;;;;3.53;1.83;;;21.20;99.90;;;;;;5021460;28;20052;-71
2022/09/07 10:14:55;;;;;;;2.83;1.80;;;21.30;99.90;;;;;;5023934;28;20124;-71
2022/09/07 10:17:30;;;;;;;2.63;1.38;;;21.40;99.90;;;;;;5022642;28;20041;-71
2022/09/07 10:20:02;;;;;;;3.67;1.92;;;21.60;99.90;;;;;;5016495;28;20045;-71
2022/09/07 10:22:37;;;;;;;2.28;1.27;;;21.60;99.90;;;;;;5019004;28;20128;-71
2022/09/07 10:25:38;;;;;;;2.90;1.30;;;21.70;99.90;;;;;;5023647;28;20053;-71
2022/09/07 10:28:13;;;;;;;2.10;1.33;;;21.80;99.90;;;;;;5023358;28;20056;-71
2022/09/07 10:31:00;;;;;;;2.25;1.42;;;21.90;99.90;;;;;;5024560;28;20124;-71
2022/09/07 10:33:44;;;;;;;3.15;1.60;;;21.90;99.90;;;;;;5026771;28;20038;-71
2022/09/07 10:36:25;;;;;;;2.78;1.50;;;22.00;99.90;;;;;;5026416;28;20045;-71
2022/09/07 10:39:15;;;;;;;3.45;1.58;;;22.10;99.90;;;;;;5023415;28;20049;-71
2022/09/07 10:41:52;;;;;;;2.40;1.48;;;22.30;99.90;;;;;;5024356;28;20052;-71
2022/09/07 10:44:56;;;;;;;2.75;1.33;;;22.40;99.90;;;;;;5026884;28;20431;-71
2022/09/07 10:47:31;;;;;;;4.18;1.17;;;22.40;99.90;;;;;;5023836;28;20073;-71
2022/09/07 10:50:06;;;;;;;3.35;1.48;;;22.40;99.90;;;;;;5024015;28;20095;-71
2022/09/07 10:52:51;;;;;;;1.60;0.90;;;22.50;99.90;;;;;;5022729;28;20578;-71
2022/09/07 10:55:25;;;;;;;1.52;0.77;;;22.60;99.90;;;;;;5027084;28;20041;-71
2022/09/07 10:57:53;;;;;;;1.58;0.80;;;22.70;99.90;;;;;;5020313;28;20080;-71
2022/09/07 11:00:21;;;;;;;2.17;0.85;;;22.80;99.90;;;;;;5025440;28;20041;-72
2022/09/07 11:03:05;;;;;;;1.67;0.90;;;22.90;99.90;;;;;;5018467;28;20045;-71
2022/09/07 11:05:41;;;;;;;2.50;0.93;;;22.90;99.90;;;;;;5023185;28;20134;-71
2022/09/07 11:08:37;;;;;;;2.30;1.23;;;22.90;99.90;;;;;;5030613;28;20045;-71
2022/09/07 11:11:10;;;;;;;4.68;1.30;;;23.00;99.90;;;;;;5023656;28;20109;-71
2022/09/07 11:13:39;;;;;;;2.55;1.30;;;23.10;99.90;;;;;;5019913;28;20442;-71
2022/09/07 11:16:13;;;;;;;2.90;1.42;;;23.10;99.90;;;;;;5028360;28;20042;-71
2022/09/07 11:18:50;;;;;;;3.80;1.50;;;23.10;99.90;;;;;;5024893;28;20077;-71
2022/09/07 11:21:21;;;;;;;2.13;1.38;;;23.10;99.90;;;;;;5022068;28;20041;-71
2022/09/07 11:23:58;;;;;;;4.22;1.17;;;23.10;99.90;;;;;;5021818;28;20048;-71
2022/09/07 11:26:47;;;;;;;2.42;1.23;;;23.10;99.90;;;;;;5025018;28;20081;-72
2022/09/07 11:29:24;;;;;;;2.80;1.20;;;23.10;99.90;;;;;;5020461;28;20033;-72
2022/09/07 11:32:23;;;;;;;2.90;1.10;;;23.20;99.90;;;;;;5023703;28;20430;-72
2022/09/07 11:35:00;;;;;;;2.10;1.30;;;23.40;99.90;;;;;;5001860;28;20104;-71
2022/09/07 11:37:37;;;;;;;1.50;0.93;;;23.60;99.90;;;;;;5024193;28;20041;-72
2022/09/07 11:40:05;;;;;;;1.67;1.05;;;23.80;99.90;;;;;;5015562;28;20133;-72
2022/09/07 11:42:33;;;;;;;3.28;1.10;;;24.00;99.90;;;;;;5018317;28;20127;-73
2022/09/07 11:45:05;;;;;;;2.47;1.35;;;24.20;99.90;;;;;;5023112;28;20052;-72
2022/09/07 11:47:48;;;;;;;1.77;0.90;;;24.30;99.90;;;;;;5018698;28;20485;-72
2022/09/07 11:50:21;;;;;;;2.53;0.98;;;24.40;99.90;;;;;;5026030;28;20041;-72
2022/09/07 11:53:13;;;;;;;1.70;0.77;;;24.50;99.90;;;;;;5025537;28;20303;-72
2022/09/07 11:55:43;;;;;;;1.80;0.70;;;24.50;99.90;;;;;;5022326;28;20117;-72
2022/09/07 11:58:26;;;;;;;3.42;0.90;;;24.40;99.90;;;;;;5024718;28;20453;-72
2022/09/07 12:01:14;;;;;;;1.58;0.80;;;24.30;99.90;;;;;;5024662;28;20037;-72
2022/09/07 12:04:11;;;;;;;3.10;0.80;;;24.10;99.90;;;;;;5022411;28;20483;-72
2022/09/07 12:07:04;;;;;;;2.70;0.82;;;24.10;99.90;;;;;;5021629;28;20503;-72
2022/09/07 12:09:39;;;;;;;1.25;0.80;;;24.00;99.90;;;;;;5023910;28;20049;-72
2022/09/07 12:12:42;;;;;;;0.90;0.68;;;23.90;99.90;;;;;;5019057;28;20483;-72
2022/09/07 12:15:41;;;;;;;1.55;0.82;;;23.90;99.90;;;;;;5020374;28;20050;-72
2022/09/07 12:18:23;;;;;;;1.60;1.00;;;23.80;99.90;;;;;;5017949;28;20045;-72
2022/09/07 12:20:49;;;;;;;1.70;1.00;;;23.90;99.90;;;;;;5022812;28;20045;-72
2022/09/07 12:23:15;;;;;;;1.85;0.90;;;23.90;99.90;;;;;;5023794;28;20373;-72
2022/09/07 12:25:43;;;;;;;2.78;1.23;;;23.90;99.90;;;;;;5022824;28;20026;-72
2022/09/07 12:28:18;;;;;;;1.85;1.00;;;23.90;99.90;;;;;;5025795;28;20149;-72
2022/09/07 12:30:56;;;;;;;3.30;1.00;;;24.10;99.90;;;;;;5023869;28;20037;-72
2022/09/07 12:33:25;;;;;;;2.63;1.20;;;24.30;99.90;;;;;;5013834;28;20132;-72
2022/09/07 12:35:53;;;;;;;1.38;0.80;;;24.40;99.90;;;;;;5021473;28;20450;-72
2022/09/07 12:38:19;;;;;;;2.08;1.23;;;24.60;99.90;;;;;;5017216;28;20481;-72
2022/09/07 12:40:47;;;;;;;2.03;0.82;;;24.80;99.90;;;;;;5024041;28;20036;-72
2022/09/07 12:43:13;;;;;;;2.63;0.90;;;24.90;99.90;;;;;;5016145;28;20543;-72
2022/09/07 12:45:38;;;;;;;1.63;0.80;;;25.10;99.90;;;;;;5023234;28;20044;-72
2022/09/07 12:48:16;;;;;;;1.98;0.80;;;25.20;99.90;;;;;;5020375;28;20069;-72
2022/09/07 12:51:19;;;;;;;2.47;0.75;;;25.30;99.90;;;;;;5017529;28;20052;-72
2022/09/07 12:54:07;;;;;;;1.00;0.70;;;25.40;99.90;;;;;;5019840;28;20041;-72
2022/09/07 12:56:54;;;;;;;2.45;1.20;;;25.30;99.90;;;;;;5015646;28;20080;-72
2022/09/07 12:59:49;;;;;;;2.88;1.52;;;25.40;99.90;;;;;;5020771;28;20048;-72
2022/09/07 13:02:38;;;;;;;2.42;1.10;;;25.40;99.90;;;;;;5022605;28;20041;-72
2022/09/07 13:05:26;;;;;;;4.25;1.52;;;25.10;99.90;;;;;;5017825;28;20048;-72
2022/09/07 13:08:28;;;;;;;3.45;1.00;;;25.10;99.90;;;;;;5020725;28;20132;-71
2022/09/07 13:10:54;;;;;;;1.92;1.00;;;25.00;99.90;;;;;;5017881;28;20049;-72
2022/09/07 13:13:26;;;;;;;1.80;0.98;;;25.10;99.90;;;;;;5009863;28;20072;-71
2022/09/07 13:16:10;;;;;;;2.22;1.10;;;25.10;99.90;;;;;;5005771;28;20487;-71